DLH5RX EDDF-EPWA
Flight info
| Callsign | DLH5RX |
|---|---|
| Flight time | 1h 19m |
| Altitude | 39000 |
| Route | SULUS7S/18 SULUS L984 OKG DCT BALTU DCT LEGAZ DCT LAGAR DCT OKENO Q277 AGAVA |
| Aircraft | A320/M-SDE3FGHIRWY/LB1 |
Departure
| Time | 2026-05-04 12:48 |
|---|---|
| Airport | Frankfurt Main Airport (EDDF) |
Arrival
| Time | 2026-05-04 14:07 |
|---|---|
| Airport | Warsaw Chopin Airport (EPWA) |
| Time | Latitude | Longitude | Altitude | Speed | Heading |
|---|---|---|---|---|---|
| 2026-05-04 12:15 | 50.04634 | 8.56673 | 356 ft | 0 kts | 115° |
| 2026-05-04 12:17 | 50.04577 | 8.56632 | 364 ft | 0 kts | 114° |
| 2026-05-04 12:29 | 50.04577 | 8.56631 | 356 ft | 0 kts | 114° |
| 2026-05-04 12:37 | 50.04586 | 8.56598 | 363 ft | 4 kts | 114° |
| 2026-05-04 12:37 | 50.04597 | 8.56561 | 360 ft | 4 kts | 114° |
| 2026-05-04 12:37 | 50.04608 | 8.56523 | 361 ft | 4 kts | 114° |
| 2026-05-04 12:37 | 50.04622 | 8.56499 | 360 ft | 4 kts | 180° |
| 2026-05-04 12:38 | 50.04638 | 8.56503 | 360 ft | 0 kts | 204° |
| 2026-05-04 12:38 | 50.04622 | 8.56492 | 360 ft | 4 kts | 204° |
| 2026-05-04 12:38 | 50.04598 | 8.56474 | 364 ft | 4 kts | 205° |
| 2026-05-04 12:38 | 50.04574 | 8.56456 | 359 ft | 2 kts | 205° |
| 2026-05-04 12:39 | 50.04572 | 8.56455 | 358 ft | 0 kts | 205° |
| 2026-05-04 12:41 | 50.04552 | 8.56440 | 359 ft | 6 kts | 206° |
| 2026-05-04 12:41 | 50.04516 | 8.56378 | 358 ft | 10 kts | 243° |
| 2026-05-04 12:42 | 50.04486 | 8.56256 | 358 ft | 14 kts | 250° |
| 2026-05-04 12:42 | 50.04446 | 8.56092 | 359 ft | 18 kts | 249° |
| 2026-05-04 12:42 | 50.04381 | 8.56034 | 359 ft | 18 kts | 174° |
| 2026-05-04 12:42 | 50.04270 | 8.56047 | 355 ft | 16 kts | 223° |
| 2026-05-04 12:43 | 50.04222 | 8.55864 | 361 ft | 21 kts | 249° |
| 2026-05-04 12:43 | 50.04168 | 8.55639 | 361 ft | 23 kts | 249° |
| 2026-05-04 12:43 | 50.04110 | 8.55400 | 360 ft | 24 kts | 249° |
| 2026-05-04 12:43 | 50.04053 | 8.55161 | 360 ft | 24 kts | 249° |
| 2026-05-04 12:44 | 50.03994 | 8.54917 | 359 ft | 25 kts | 249° |
| 2026-05-04 12:44 | 50.03932 | 8.54659 | 356 ft | 26 kts | 250° |
| 2026-05-04 12:44 | 50.03868 | 8.54388 | 352 ft | 27 kts | 248° |
| 2026-05-04 12:44 | 50.03779 | 8.54137 | 353 ft | 26 kts | 251° |
| 2026-05-04 12:45 | 50.03715 | 8.53870 | 351 ft | 26 kts | 249° |
| 2026-05-04 12:45 | 50.03649 | 8.53598 | 349 ft | 27 kts | 249° |
| 2026-05-04 12:45 | 50.03581 | 8.53322 | 336 ft | 28 kts | 249° |
| 2026-05-04 12:45 | 50.03511 | 8.53038 | 335 ft | 28 kts | 249° |
| 2026-05-04 12:46 | 50.03445 | 8.52768 | 334 ft | 14 kts | 248° |
| 2026-05-04 12:46 | 50.03434 | 8.52727 | 331 ft | 0 kts | 248° |
| 2026-05-04 12:47 | 50.03427 | 8.52702 | 332 ft | 7 kts | 248° |
| 2026-05-04 12:47 | 50.03399 | 8.52601 | 333 ft | 8 kts | 230° |
| 2026-05-04 12:47 | 50.03339 | 8.52594 | 335 ft | 9 kts | 179° |
| 2026-05-04 12:47 | 50.03237 | 8.52595 | 335 ft | 35 kts | 180° |
| 2026-05-04 12:48 | 50.02735 | 8.52596 | 335 ft | 105 kts | 179° |
| 2026-05-04 12:48 | 50.01810 | 8.52601 | 337 ft | 158 kts | 184° |
| 2026-05-04 12:48 | 50.00676 | 8.52630 | 902 ft | 162 kts | 179° |
| 2026-05-04 12:48 | 49.99549 | 8.52672 | 1579 ft | 162 kts | 182° |
| 2026-05-04 12:49 | 49.98366 | 8.52671 | 1994 ft | 180 kts | 183° |
| 2026-05-04 12:49 | 49.97056 | 8.53056 | 2273 ft | 208 kts | 157° |
| 2026-05-04 12:49 | 49.95919 | 8.54621 | 2636 ft | 236 kts | 125° |
| 2026-05-04 12:49 | 49.95080 | 8.56891 | 3320 ft | 245 kts | 122° |
| 2026-05-04 12:50 | 49.94245 | 8.59238 | 3850 ft | 252 kts | 121° |
| 2026-05-04 12:50 | 49.93372 | 8.61696 | 3978 ft | 268 kts | 121° |
| 2026-05-04 12:50 | 49.92479 | 8.64211 | 3999 ft | 271 kts | 120° |
| 2026-05-04 12:50 | 49.91554 | 8.66806 | 4306 ft | 280 kts | 121° |
| 2026-05-04 12:51 | 49.90613 | 8.69443 | 5381 ft | 280 kts | 121° |
| 2026-05-04 12:51 | 49.89653 | 8.72109 | 6350 ft | 285 kts | 121° |
| 2026-05-04 12:51 | 49.88683 | 8.74799 | 7265 ft | 287 kts | 121° |
| 2026-05-04 12:51 | 49.87707 | 8.77507 | 8272 ft | 287 kts | 122° |
| 2026-05-04 12:52 | 49.86733 | 8.80205 | 9277 ft | 288 kts | 122° |
| 2026-05-04 12:52 | 49.85755 | 8.82918 | 10210 ft | 290 kts | 122° |
| 2026-05-04 12:52 | 49.84745 | 8.85706 | 10744 ft | 306 kts | 122° |
| 2026-05-04 12:52 | 49.83665 | 8.88672 | 10936 ft | 323 kts | 122° |
| 2026-05-04 12:53 | 49.82555 | 8.91724 | 10994 ft | 327 kts | 122° |
| 2026-05-04 12:53 | 49.81439 | 8.94798 | 10994 ft | 328 kts | 122° |
| 2026-05-04 12:53 | 49.80321 | 8.97872 | 11037 ft | 329 kts | 122° |
| 2026-05-04 12:53 | 49.79268 | 9.01061 | 11783 ft | 336 kts | 112° |
| 2026-05-04 12:54 | 49.78845 | 9.04651 | 12621 ft | 346 kts | 92° |
| 2026-05-04 12:54 | 49.79192 | 9.08371 | 13394 ft | 353 kts | 80° |
| 2026-05-04 12:54 | 49.79717 | 9.12109 | 14114 ft | 358 kts | 79° |
| 2026-05-04 12:54 | 49.80263 | 9.15885 | 14795 ft | 362 kts | 79° |
| 2026-05-04 12:55 | 49.80817 | 9.19708 | 15487 ft | 366 kts | 79° |
| 2026-05-04 12:55 | 49.81373 | 9.23577 | 16146 ft | 371 kts | 80° |
| 2026-05-04 12:55 | 49.81931 | 9.27508 | 16793 ft | 375 kts | 80° |
| 2026-05-04 12:55 | 49.82488 | 9.31477 | 17418 ft | 380 kts | 80° |
| 2026-05-04 12:56 | 49.83049 | 9.35497 | 18019 ft | 385 kts | 80° |
| 2026-05-04 12:56 | 49.83617 | 9.39580 | 18593 ft | 389 kts | 80° |
| 2026-05-04 12:56 | 49.84191 | 9.43698 | 19127 ft | 393 kts | 80° |
| 2026-05-04 12:56 | 49.84767 | 9.47865 | 19679 ft | 397 kts | 80° |
| 2026-05-04 12:57 | 49.85343 | 9.52058 | 20222 ft | 401 kts | 80° |
| 2026-05-04 12:57 | 49.85924 | 9.56309 | 20756 ft | 404 kts | 80° |
| 2026-05-04 12:57 | 49.86510 | 9.60583 | 21328 ft | 407 kts | 80° |
| 2026-05-04 12:57 | 49.87101 | 9.64885 | 21853 ft | 410 kts | 80° |
| 2026-05-04 12:58 | 49.87695 | 9.69224 | 22380 ft | 413 kts | 80° |
| 2026-05-04 12:58 | 49.88290 | 9.73601 | 22904 ft | 416 kts | 80° |
| 2026-05-04 12:58 | 49.88887 | 9.78013 | 23410 ft | 420 kts | 81° |
| 2026-05-04 12:58 | 49.89477 | 9.82402 | 23837 ft | 423 kts | 81° |
| 2026-05-04 12:59 | 49.90086 | 9.86941 | 24252 ft | 426 kts | 81° |
| 2026-05-04 12:59 | 49.90692 | 9.91444 | 24654 ft | 429 kts | 81° |
| 2026-05-04 12:59 | 49.91304 | 9.95994 | 25050 ft | 432 kts | 81° |
| 2026-05-04 12:59 | 49.91916 | 10.00562 | 25448 ft | 434 kts | 81° |
| 2026-05-04 13:00 | 49.92521 | 10.05107 | 25819 ft | 437 kts | 81° |
| 2026-05-04 13:00 | 49.93137 | 10.09758 | 26135 ft | 442 kts | 81° |
| 2026-05-04 13:00 | 49.93756 | 10.14452 | 26494 ft | 446 kts | 81° |
| 2026-05-04 13:00 | 49.94377 | 10.19181 | 26861 ft | 449 kts | 81° |
| 2026-05-04 13:01 | 49.95004 | 10.23953 | 27225 ft | 452 kts | 81° |
| 2026-05-04 13:01 | 49.95630 | 10.28749 | 27593 ft | 455 kts | 81° |
| 2026-05-04 13:01 | 49.96259 | 10.33581 | 27960 ft | 458 kts | 81° |
| 2026-05-04 13:01 | 49.96891 | 10.38438 | 28304 ft | 461 kts | 81° |
| 2026-05-04 13:02 | 49.97528 | 10.43342 | 28651 ft | 464 kts | 81° |
| 2026-05-04 13:02 | 49.98164 | 10.48260 | 29024 ft | 466 kts | 81° |
| 2026-05-04 13:02 | 49.98802 | 10.53213 | 29349 ft | 469 kts | 81° |
| 2026-05-04 13:02 | 49.99441 | 10.58194 | 29732 ft | 471 kts | 81° |
| 2026-05-04 13:03 | 50.00080 | 10.63196 | 30071 ft | 473 kts | 81° |
| 2026-05-04 13:03 | 50.00717 | 10.68218 | 30370 ft | 475 kts | 81° |
| 2026-05-04 13:03 | 50.01353 | 10.73257 | 30651 ft | 477 kts | 81° |
| 2026-05-04 13:03 | 50.01993 | 10.78335 | 30928 ft | 479 kts | 81° |
| 2026-05-04 13:04 | 50.02630 | 10.83417 | 31207 ft | 480 kts | 81° |
| 2026-05-04 13:04 | 50.03269 | 10.88530 | 31477 ft | 482 kts | 81° |
| 2026-05-04 13:04 | 50.03911 | 10.93665 | 31733 ft | 484 kts | 81° |
| 2026-05-04 13:04 | 50.04553 | 10.98814 | 32037 ft | 485 kts | 81° |
| 2026-05-04 13:05 | 50.05194 | 11.03965 | 32443 ft | 483 kts | 81° |
| 2026-05-04 13:05 | 50.05825 | 11.09087 | 32883 ft | 481 kts | 81° |
| 2026-05-04 13:05 | 50.06449 | 11.14196 | 33272 ft | 480 kts | 81° |
| 2026-05-04 13:05 | 50.07065 | 11.19288 | 33644 ft | 479 kts | 81° |
| 2026-05-04 13:06 | 50.07443 | 11.24426 | 34001 ft | 476 kts | 90° |
| 2026-05-04 13:06 | 50.07452 | 11.29570 | 34309 ft | 475 kts | 92° |
| 2026-05-04 13:06 | 50.07429 | 11.34635 | 34604 ft | 475 kts | 92° |
| 2026-05-04 13:06 | 50.07404 | 11.39773 | 34908 ft | 474 kts | 92° |
| 2026-05-04 13:07 | 50.07380 | 11.44911 | 35205 ft | 474 kts | 92° |
| 2026-05-04 13:07 | 50.07357 | 11.50033 | 35484 ft | 474 kts | 92° |
| 2026-05-04 13:07 | 50.07332 | 11.55162 | 35768 ft | 474 kts | 92° |
| 2026-05-04 13:07 | 50.07304 | 11.60293 | 36023 ft | 474 kts | 92° |
| 2026-05-04 13:08 | 50.07272 | 11.65418 | 36281 ft | 474 kts | 92° |
| 2026-05-04 13:08 | 50.07239 | 11.70546 | 36546 ft | 473 kts | 92° |
| 2026-05-04 13:08 | 50.07204 | 11.75660 | 36819 ft | 473 kts | 92° |
| 2026-05-04 13:08 | 50.07167 | 11.80775 | 37089 ft | 472 kts | 92° |
| 2026-05-04 13:09 | 50.07130 | 11.85885 | 37335 ft | 472 kts | 92° |
| 2026-05-04 13:09 | 50.07091 | 11.90981 | 37582 ft | 471 kts | 92° |
| 2026-05-04 13:09 | 50.07049 | 11.96079 | 37812 ft | 470 kts | 92° |
| 2026-05-04 13:09 | 50.07003 | 12.01164 | 38044 ft | 470 kts | 92° |
| 2026-05-04 13:10 | 50.06955 | 12.06248 | 38285 ft | 469 kts | 92° |
| 2026-05-04 13:10 | 50.06904 | 12.11324 | 38517 ft | 469 kts | 92° |
| 2026-05-04 13:10 | 50.06847 | 12.16392 | 38716 ft | 468 kts | 92° |
| 2026-05-04 13:10 | 50.06784 | 12.21457 | 38877 ft | 468 kts | 93° |
| 2026-05-04 13:11 | 50.06716 | 12.26532 | 38967 ft | 469 kts | 93° |
| 2026-05-04 13:11 | 50.06574 | 12.36667 | 38987 ft | 469 kts | 93° |
| 2026-05-04 13:12 | 50.06550 | 12.46822 | 38986 ft | 470 kts | 89° |
| 2026-05-04 13:12 | 50.06887 | 12.56987 | 38995 ft | 470 kts | 88° |
| 2026-05-04 13:13 | 50.07292 | 12.67065 | 39002 ft | 470 kts | 88° |
| 2026-05-04 13:13 | 50.07612 | 12.77236 | 39002 ft | 470 kts | 89° |
| 2026-05-04 13:14 | 50.07864 | 12.87393 | 39007 ft | 470 kts | 89° |
| 2026-05-04 13:14 | 50.08111 | 12.97567 | 39005 ft | 470 kts | 89° |
| 2026-05-04 13:15 | 50.08365 | 13.07745 | 39002 ft | 470 kts | 89° |
| 2026-05-04 13:15 | 50.08606 | 13.17914 | 38993 ft | 470 kts | 89° |
| 2026-05-04 13:16 | 50.09018 | 13.28071 | 38999 ft | 471 kts | 80° |
| 2026-05-04 13:16 | 50.11048 | 13.37712 | 39000 ft | 470 kts | 62° |
| 2026-05-04 13:17 | 50.14443 | 13.46426 | 38989 ft | 470 kts | 57° |
| 2026-05-04 13:17 | 50.17881 | 13.55108 | 38990 ft | 471 kts | 57° |
| 2026-05-04 13:18 | 50.21302 | 13.63817 | 38993 ft | 471 kts | 58° |
| 2026-05-04 13:18 | 50.24685 | 13.72453 | 38991 ft | 471 kts | 58° |
| 2026-05-04 13:19 | 50.28102 | 13.81202 | 38997 ft | 472 kts | 58° |
| 2026-05-04 13:19 | 50.31519 | 13.89965 | 38994 ft | 472 kts | 58° |
| 2026-05-04 13:20 | 50.34930 | 13.98725 | 38992 ft | 471 kts | 58° |
| 2026-05-04 13:20 | 50.38331 | 14.07503 | 39009 ft | 471 kts | 58° |
| 2026-05-04 13:21 | 50.41719 | 14.16274 | 39013 ft | 470 kts | 58° |
| 2026-05-04 13:21 | 50.45099 | 14.25060 | 39015 ft | 470 kts | 58° |
| 2026-05-04 13:22 | 50.48466 | 14.33845 | 39011 ft | 470 kts | 58° |
| 2026-05-04 13:22 | 50.51833 | 14.42651 | 39004 ft | 470 kts | 58° |
| 2026-05-04 13:23 | 50.55198 | 14.51478 | 38996 ft | 470 kts | 58° |
| 2026-05-04 13:23 | 50.58554 | 14.60318 | 38987 ft | 470 kts | 58° |
| 2026-05-04 13:24 | 50.61897 | 14.69170 | 38989 ft | 470 kts | 58° |
| 2026-05-04 13:24 | 50.65227 | 14.78025 | 39004 ft | 470 kts | 60° |
| 2026-05-04 13:25 | 50.68970 | 14.92331 | 38989 ft | 471 kts | 69° |
| 2026-05-04 13:25 | 50.71276 | 15.01935 | 38994 ft | 471 kts | 69° |
| 2026-05-04 13:26 | 50.73590 | 15.11619 | 38987 ft | 471 kts | 69° |
| 2026-05-04 13:26 | 50.75891 | 15.21306 | 38985 ft | 471 kts | 69° |
| 2026-05-04 13:27 | 50.78188 | 15.31006 | 38992 ft | 471 kts | 69° |
| 2026-05-04 13:27 | 50.80488 | 15.40693 | 38995 ft | 471 kts | 68° |
| 2026-05-04 13:28 | 50.82954 | 15.50293 | 38996 ft | 471 kts | 67° |
| 2026-05-04 13:28 | 50.85472 | 15.59875 | 38992 ft | 472 kts | 67° |
| 2026-05-04 13:29 | 50.87949 | 15.69497 | 38984 ft | 472 kts | 68° |
| 2026-05-04 13:29 | 50.90390 | 15.79150 | 38995 ft | 472 kts | 68° |
| 2026-05-04 13:30 | 50.92817 | 15.88807 | 38985 ft | 472 kts | 68° |
| 2026-05-04 13:30 | 50.95246 | 15.98467 | 38994 ft | 472 kts | 68° |
| 2026-05-04 13:31 | 50.97674 | 16.08144 | 38991 ft | 472 kts | 68° |
| 2026-05-04 13:31 | 50.99682 | 16.16187 | 38987 ft | 472 kts | 68° |
| 2026-05-04 13:32 | 51.02499 | 16.27518 | 38974 ft | 472 kts | 67° |
| 2026-05-04 13:32 | 51.04893 | 16.37216 | 38979 ft | 472 kts | 68° |
| 2026-05-04 13:33 | 51.06879 | 16.45286 | 38975 ft | 471 kts | 68° |
| 2026-05-04 13:33 | 51.09264 | 16.55004 | 38980 ft | 472 kts | 68° |
| 2026-05-04 13:34 | 51.11644 | 16.64728 | 38984 ft | 472 kts | 68° |
| 2026-05-04 13:34 | 51.14019 | 16.74475 | 38982 ft | 472 kts | 68° |
| 2026-05-04 13:35 | 51.17549 | 16.89115 | 38986 ft | 472 kts | 68° |
| 2026-05-04 13:36 | 51.19893 | 16.98877 | 38996 ft | 471 kts | 68° |
| 2026-05-04 13:36 | 51.22226 | 17.08627 | 38994 ft | 470 kts | 68° |
| 2026-05-04 13:37 | 51.24554 | 17.18380 | 38982 ft | 470 kts | 68° |
| 2026-05-04 13:37 | 51.26867 | 17.28134 | 38977 ft | 470 kts | 68° |
| 2026-05-04 13:38 | 51.29169 | 17.37909 | 38981 ft | 470 kts | 69° |
| 2026-05-04 13:38 | 51.31447 | 17.47637 | 38970 ft | 470 kts | 69° |
| 2026-05-04 13:39 | 51.33746 | 17.57484 | 38972 ft | 469 kts | 69° |
| 2026-05-04 13:39 | 51.36030 | 17.67261 | 38975 ft | 469 kts | 69° |
| 2026-05-04 13:40 | 51.38289 | 17.76982 | 38988 ft | 469 kts | 69° |
| 2026-05-04 13:40 | 51.40551 | 17.86768 | 38985 ft | 469 kts | 69° |
| 2026-05-04 13:41 | 51.42805 | 17.96580 | 38986 ft | 469 kts | 69° |
| 2026-05-04 13:41 | 51.45049 | 18.06397 | 38970 ft | 469 kts | 69° |
| 2026-05-04 13:42 | 51.48391 | 18.21130 | 38975 ft | 469 kts | 69° |
| 2026-05-04 13:42 | 51.49517 | 18.26100 | 38766 ft | 478 kts | 69° |
| 2026-05-04 13:42 | 51.50659 | 18.31145 | 38521 ft | 484 kts | 69° |
| 2026-05-04 13:43 | 51.51809 | 18.36238 | 38233 ft | 486 kts | 69° |
| 2026-05-04 13:43 | 51.52955 | 18.41338 | 37862 ft | 486 kts | 70° |
| 2026-05-04 13:43 | 51.54098 | 18.46450 | 37082 ft | 486 kts | 70° |
| 2026-05-04 13:43 | 51.55236 | 18.51559 | 36284 ft | 487 kts | 70° |
| 2026-05-04 13:44 | 51.56293 | 18.56747 | 35408 ft | 489 kts | 76° |
| 2026-05-04 13:44 | 51.56906 | 18.62098 | 34760 ft | 484 kts | 83° |
| 2026-05-04 13:44 | 51.57106 | 18.67482 | 33575 ft | 482 kts | 89° |
| 2026-05-04 13:44 | 51.57175 | 18.72807 | 32662 ft | 471 kts | 90° |
| 2026-05-04 13:45 | 51.57237 | 18.77974 | 32143 ft | 454 kts | 90° |
| 2026-05-04 13:45 | 51.57296 | 18.82967 | 31561 ft | 440 kts | 90° |
| 2026-05-04 13:45 | 51.57353 | 18.87852 | 30995 ft | 436 kts | 90° |
| 2026-05-04 13:45 | 51.57411 | 18.92721 | 30431 ft | 435 kts | 90° |
| 2026-05-04 13:46 | 51.57466 | 18.97571 | 29839 ft | 434 kts | 90° |
| 2026-05-04 13:46 | 51.57517 | 19.02411 | 29263 ft | 431 kts | 90° |
| 2026-05-04 13:46 | 51.57563 | 19.07195 | 28719 ft | 427 kts | 90° |
| 2026-05-04 13:46 | 51.57607 | 19.11945 | 28174 ft | 423 kts | 90° |
| 2026-05-04 13:47 | 51.57652 | 19.16659 | 27640 ft | 420 kts | 90° |
| 2026-05-04 13:47 | 51.57697 | 19.21330 | 27113 ft | 416 kts | 90° |
| 2026-05-04 13:47 | 51.57742 | 19.25959 | 26596 ft | 413 kts | 90° |
| 2026-05-04 13:47 | 51.57782 | 19.30552 | 26086 ft | 410 kts | 90° |
| 2026-05-04 13:48 | 51.57818 | 19.35115 | 25587 ft | 407 kts | 90° |
| 2026-05-04 13:48 | 51.57848 | 19.39643 | 25105 ft | 403 kts | 90° |
| 2026-05-04 13:48 | 51.57879 | 19.44127 | 24630 ft | 400 kts | 90° |
| 2026-05-04 13:48 | 51.57910 | 19.48525 | 24169 ft | 397 kts | 90° |
| 2026-05-04 13:49 | 51.57940 | 19.52943 | 23704 ft | 394 kts | 90° |
| 2026-05-04 13:49 | 51.57965 | 19.57332 | 23197 ft | 391 kts | 90° |
| 2026-05-04 13:49 | 51.57988 | 19.61675 | 22743 ft | 387 kts | 90° |
| 2026-05-04 13:49 | 51.58012 | 19.65981 | 22280 ft | 383 kts | 90° |
| 2026-05-04 13:50 | 51.58038 | 19.70234 | 21847 ft | 379 kts | 90° |
| 2026-05-04 13:50 | 51.58062 | 19.74463 | 21376 ft | 377 kts | 90° |
| 2026-05-04 13:50 | 51.58083 | 19.78669 | 20931 ft | 376 kts | 90° |
| 2026-05-04 13:50 | 51.58102 | 19.82865 | 20464 ft | 375 kts | 91° |
| 2026-05-04 13:51 | 51.58115 | 19.87046 | 19998 ft | 374 kts | 91° |
| 2026-05-04 13:51 | 51.58127 | 19.91213 | 19526 ft | 373 kts | 91° |
| 2026-05-04 13:51 | 51.58141 | 19.95396 | 19094 ft | 377 kts | 91° |
| 2026-05-04 13:51 | 51.58109 | 19.99657 | 18725 ft | 383 kts | 94° |
| 2026-05-04 13:52 | 51.57847 | 20.08230 | 18115 ft | 384 kts | 96° |
| 2026-05-04 13:52 | 51.57678 | 20.12504 | 17816 ft | 382 kts | 96° |
| 2026-05-04 13:52 | 51.57508 | 20.16752 | 17510 ft | 381 kts | 96° |
| 2026-05-04 13:53 | 51.57347 | 20.20992 | 17238 ft | 379 kts | 95° |
| 2026-05-04 13:53 | 51.57198 | 20.25225 | 16954 ft | 378 kts | 95° |
| 2026-05-04 13:53 | 51.57059 | 20.29439 | 16489 ft | 378 kts | 95° |
| 2026-05-04 13:54 | 51.56786 | 20.37829 | 15555 ft | 374 kts | 95° |
| 2026-05-04 13:54 | 51.56719 | 20.41987 | 15135 ft | 372 kts | 88° |
| 2026-05-04 13:54 | 51.57985 | 20.49997 | 14225 ft | 371 kts | 67° |
| 2026-05-04 13:55 | 51.58977 | 20.53794 | 13881 ft | 366 kts | 68° |
| 2026-05-04 13:55 | 51.60910 | 20.61237 | 12767 ft | 357 kts | 68° |
| 2026-05-04 13:55 | 51.61863 | 20.64914 | 12325 ft | 355 kts | 68° |
| 2026-05-04 13:56 | 51.62806 | 20.68563 | 11874 ft | 352 kts | 68° |
| 2026-05-04 13:56 | 51.63742 | 20.72191 | 11439 ft | 350 kts | 68° |
| 2026-05-04 13:56 | 51.65577 | 20.79349 | 10577 ft | 347 kts | 68° |
| 2026-05-04 13:57 | 51.66493 | 20.82925 | 10232 ft | 342 kts | 68° |
| 2026-05-04 13:57 | 51.67419 | 20.86375 | 10115 ft | 329 kts | 61° |
| 2026-05-04 13:58 | 51.72346 | 20.92966 | 9298 ft | 306 kts | 15° |
| 2026-05-04 13:58 | 51.76388 | 20.95065 | 8418 ft | 304 kts | 15° |
| 2026-05-04 13:58 | 51.78288 | 20.96476 | 7928 ft | 300 kts | 30° |
| 2026-05-04 13:59 | 51.79986 | 20.98440 | 7523 ft | 300 kts | 34° |
| 2026-05-04 13:59 | 51.81670 | 21.00442 | 7108 ft | 301 kts | 34° |
| 2026-05-04 13:59 | 51.84984 | 21.04361 | 6664 ft | 285 kts | 34° |
| 2026-05-04 14:00 | 51.86526 | 21.06259 | 6550 ft | 274 kts | 41° |
| 2026-05-04 14:00 | 51.88616 | 21.11224 | 5940 ft | 265 kts | 62° |
| 2026-05-04 14:00 | 51.89481 | 21.13839 | 5420 ft | 262 kts | 60° |
| 2026-05-04 14:01 | 51.90638 | 21.16032 | 4955 ft | 254 kts | 31° |
| 2026-05-04 14:01 | 51.92252 | 21.16920 | 4711 ft | 238 kts | 359° |
| 2026-05-04 14:01 | 51.95085 | 21.15398 | 4441 ft | 204 kts | 327° |
| 2026-05-04 14:02 | 51.96346 | 21.14312 | 4011 ft | 210 kts | 327° |
| 2026-05-04 14:02 | 51.97632 | 21.13200 | 3697 ft | 206 kts | 327° |
| 2026-05-04 14:02 | 51.98874 | 21.12128 | 3537 ft | 199 kts | 327° |
| 2026-05-04 14:02 | 52.00069 | 21.11095 | 3438 ft | 190 kts | 327° |
| 2026-05-04 14:03 | 52.01219 | 21.10094 | 3355 ft | 184 kts | 327° |
| 2026-05-04 14:03 | 52.02309 | 21.09140 | 3223 ft | 173 kts | 327° |
| 2026-05-04 14:03 | 52.03359 | 21.08224 | 3001 ft | 169 kts | 327° |
| 2026-05-04 14:03 | 52.04370 | 21.07345 | 2786 ft | 161 kts | 328° |
| 2026-05-04 14:04 | 52.06261 | 21.05702 | 2396 ft | 150 kts | 327° |
| 2026-05-04 14:04 | 52.07169 | 21.04913 | 2193 ft | 146 kts | 325° |
| 2026-05-04 14:04 | 52.08039 | 21.04158 | 2036 ft | 136 kts | 324° |
| 2026-05-04 14:05 | 52.09641 | 21.02763 | 1674 ft | 127 kts | 326° |
| 2026-05-04 14:05 | 52.10413 | 21.02090 | 1509 ft | 125 kts | 326° |
| 2026-05-04 14:05 | 52.11178 | 21.01424 | 1343 ft | 124 kts | 325° |
| 2026-05-04 14:06 | 52.11938 | 21.00760 | 1174 ft | 124 kts | 327° |
| 2026-05-04 14:06 | 52.12708 | 21.00088 | 1011 ft | 130 kts | 326° |
| 2026-05-04 14:06 | 52.13509 | 20.99390 | 827 ft | 131 kts | 327° |
| 2026-05-04 14:06 | 52.14315 | 20.98683 | 626 ft | 132 kts | 325° |
| 2026-05-04 14:07 | 52.15122 | 20.97971 | 447 ft | 132 kts | 327° |
| 2026-05-04 14:07 | 52.15927 | 20.97286 | 349 ft | 127 kts | 327° |
| 2026-05-04 14:07 | 52.16572 | 20.96710 | 338 ft | 81 kts | 332° |
| 2026-05-04 14:07 | 52.16920 | 20.96408 | 337 ft | 37 kts | 332° |
| 2026-05-04 14:08 | 52.17084 | 20.96273 | 334 ft | 23 kts | 335° |
| 2026-05-04 14:08 | 52.17231 | 20.96255 | 335 ft | 20 kts | 360° |
| 2026-05-04 14:08 | 52.17334 | 20.96252 | 338 ft | 4 kts | 4° |
| 2026-05-04 14:08 | 52.17359 | 20.96258 | 336 ft | 3 kts | 8° |
| 2026-05-04 14:09 | 52.17384 | 20.96269 | 339 ft | 1 kts | 22° |
| 2026-05-04 14:09 | 52.17396 | 20.96287 | 333 ft | 4 kts | 51° |
| 2026-05-04 14:10 | 52.17403 | 20.96358 | 338 ft | 4 kts | 99° |
| 2026-05-04 14:10 | 52.17373 | 20.96413 | 337 ft | 9 kts | 145° |
| 2026-05-04 14:10 | 52.17301 | 20.96478 | 337 ft | 15 kts | 152° |
| 2026-05-04 14:10 | 52.17195 | 20.96567 | 336 ft | 20 kts | 153° |
| 2026-05-04 14:11 | 52.17137 | 20.96697 | 339 ft | 13 kts | 84° |
| 2026-05-04 14:11 | 52.17201 | 20.96802 | 339 ft | 6 kts | 355° |
| 2026-05-04 14:11 | 52.17233 | 20.96779 | 336 ft | 5 kts | 327° |
| 2026-05-04 14:12 | 52.17240 | 20.96741 | 336 ft | 3 kts | 261° |
| 2026-05-04 14:12 | 52.17224 | 20.96697 | 336 ft | 6 kts | 217° |
| 2026-05-04 14:12 | 52.17194 | 20.96674 | 336 ft | 0 kts | 203° |
| 2026-05-04 14:18 | 52.17195 | 20.96674 | 336 ft | 0 kts | 203° |